DAL2654 KATL-KMSP
Flight info
| Callsign | DAL2654 |
|---|---|
| Flight time | 2h 17m |
| Altitude | 34000 |
| Route | VARNM2 RESPE DCT IIU J89 OBK DCT KAMMA KKILR4 |
| Aircraft | A321/M-SDE3FGHIRWY/LB1 |
Departure
| Time | 2026-05-04 20:43 |
|---|---|
| Airport | Hartsfield Jackson Atlanta International Airport (KATL) |
Arrival
| Time | 2026-05-04 23:00 |
|---|---|
| Airport | Minneapolis–Saint Paul International Airport / Wold–Chamberlain Field (KMSP) |
| Time | Latitude | Longitude | Altitude | Speed | Heading |
|---|---|---|---|---|---|
| 2026-05-04 20:01 | 33.64340 | -84.43329 | 1036 ft | 0 kts | 95° |
| 2026-05-04 20:32 | 33.64340 | -84.43333 | 1035 ft | 3 kts | 95° |
| 2026-05-04 20:32 | 33.64341 | -84.43351 | 1035 ft | 4 kts | 100° |
| 2026-05-04 20:32 | 33.64350 | -84.43380 | 1035 ft | 4 kts | 133° |
| 2026-05-04 20:32 | 33.64370 | -84.43394 | 1035 ft | 3 kts | 178° |
| 2026-05-04 20:33 | 33.64377 | -84.43394 | 1035 ft | 0 kts | 180° |
| 2026-05-04 20:36 | 33.64371 | -84.43397 | 1035 ft | 3 kts | 199° |
| 2026-05-04 20:37 | 33.64377 | -84.43408 | 1035 ft | 2 kts | 334° |
| 2026-05-04 20:37 | 33.64437 | -84.43381 | 1036 ft | 14 kts | 39° |
| 2026-05-04 20:37 | 33.64462 | -84.43283 | 1036 ft | 12 kts | 87° |
| 2026-05-04 20:37 | 33.64463 | -84.43189 | 1036 ft | 11 kts | 91° |
| 2026-05-04 20:38 | 33.64460 | -84.43074 | 1036 ft | 20 kts | 91° |
| 2026-05-04 20:38 | 33.64460 | -84.42886 | 1035 ft | 23 kts | 90° |
| 2026-05-04 20:38 | 33.64463 | -84.42699 | 1035 ft | 22 kts | 82° |
| 2026-05-04 20:38 | 33.64470 | -84.42523 | 1035 ft | 21 kts | 90° |
| 2026-05-04 20:39 | 33.64469 | -84.42357 | 1035 ft | 19 kts | 90° |
| 2026-05-04 20:39 | 33.64497 | -84.42206 | 1035 ft | 18 kts | 62° |
| 2026-05-04 20:39 | 33.64545 | -84.42077 | 1035 ft | 16 kts | 82° |
| 2026-05-04 20:39 | 33.64545 | -84.41934 | 1035 ft | 20 kts | 91° |
| 2026-05-04 20:40 | 33.64544 | -84.41768 | 1036 ft | 19 kts | 90° |
| 2026-05-04 20:40 | 33.64544 | -84.41602 | 1036 ft | 23 kts | 90° |
| 2026-05-04 20:40 | 33.64542 | -84.41368 | 1036 ft | 33 kts | 90° |
| 2026-05-04 20:40 | 33.64543 | -84.41137 | 1036 ft | 26 kts | 90° |
| 2026-05-04 20:41 | 33.64544 | -84.40924 | 1035 ft | 23 kts | 90° |
| 2026-05-04 20:41 | 33.64565 | -84.40782 | 1035 ft | 16 kts | 76° |
| 2026-05-04 20:41 | 33.64571 | -84.40650 | 1034 ft | 15 kts | 91° |
| 2026-05-04 20:41 | 33.64617 | -84.40573 | 1033 ft | 12 kts | 12° |
| 2026-05-04 20:42 | 33.64676 | -84.40576 | 1033 ft | 5 kts | 330° |
| 2026-05-04 20:42 | 33.64679 | -84.40627 | 1033 ft | 13 kts | 269° |
| 2026-05-04 20:42 | 33.64678 | -84.40947 | 1036 ft | 75 kts | 270° |
| 2026-05-04 20:42 | 33.64677 | -84.41898 | 1037 ft | 149 kts | 270° |
| 2026-05-04 20:43 | 33.64675 | -84.43315 | 1486 ft | 171 kts | 266° |
| 2026-05-04 20:43 | 33.64660 | -84.44707 | 2575 ft | 168 kts | 265° |
| 2026-05-04 20:43 | 33.64651 | -84.46133 | 3331 ft | 171 kts | 269° |
| 2026-05-04 20:43 | 33.64932 | -84.47547 | 3668 ft | 187 kts | 289° |
| 2026-05-04 20:44 | 33.65520 | -84.49045 | 3847 ft | 209 kts | 295° |
| 2026-05-04 20:44 | 33.66224 | -84.50688 | 4076 ft | 234 kts | 294° |
| 2026-05-04 20:44 | 33.67002 | -84.52521 | 4342 ft | 258 kts | 295° |
| 2026-05-04 20:44 | 33.67819 | -84.54503 | 4884 ft | 270 kts | 294° |
| 2026-05-04 20:45 | 33.68385 | -84.55845 | 5364 ft | 273 kts | 299° |
| 2026-05-04 20:45 | 33.69712 | -84.57486 | 6100 ft | 280 kts | 328° |
| 2026-05-04 20:45 | 33.71579 | -84.58185 | 6787 ft | 287 kts | 356° |
| 2026-05-04 20:45 | 33.73592 | -84.58184 | 7481 ft | 291 kts | 0° |
| 2026-05-04 20:46 | 33.75657 | -84.58149 | 8192 ft | 294 kts | 0° |
| 2026-05-04 20:46 | 33.77718 | -84.58113 | 8880 ft | 299 kts | 360° |
| 2026-05-04 20:46 | 33.79812 | -84.58084 | 9557 ft | 303 kts | 360° |
| 2026-05-04 20:46 | 33.81935 | -84.58061 | 10198 ft | 308 kts | 359° |
| 2026-05-04 20:47 | 33.84156 | -84.58068 | 10366 ft | 331 kts | 358° |
| 2026-05-04 20:47 | 33.86533 | -84.58110 | 10474 ft | 352 kts | 357° |
| 2026-05-04 20:47 | 33.89037 | -84.58191 | 10810 ft | 365 kts | 357° |
| 2026-05-04 20:47 | 33.91589 | -84.58286 | 11439 ft | 368 kts | 356° |
| 2026-05-04 20:48 | 33.94151 | -84.58377 | 12116 ft | 369 kts | 356° |
| 2026-05-04 20:48 | 33.96726 | -84.58464 | 12843 ft | 371 kts | 356° |
| 2026-05-04 20:48 | 33.99306 | -84.58549 | 13538 ft | 372 kts | 356° |
| 2026-05-04 20:48 | 34.01904 | -84.58632 | 14199 ft | 374 kts | 356° |
| 2026-05-04 20:49 | 34.04510 | -84.58710 | 14781 ft | 376 kts | 356° |
| 2026-05-04 20:49 | 34.07142 | -84.58785 | 15335 ft | 379 kts | 356° |
| 2026-05-04 20:49 | 34.09762 | -84.58860 | 15891 ft | 382 kts | 355° |
| 2026-05-04 20:49 | 34.12432 | -84.58940 | 16453 ft | 385 kts | 355° |
| 2026-05-04 20:50 | 34.15118 | -84.59021 | 17002 ft | 388 kts | 355° |
| 2026-05-04 20:50 | 34.17822 | -84.59103 | 17524 ft | 391 kts | 355° |
| 2026-05-04 20:50 | 34.20551 | -84.59187 | 18055 ft | 394 kts | 355° |
| 2026-05-04 20:50 | 34.23297 | -84.59274 | 18544 ft | 396 kts | 354° |
| 2026-05-04 20:51 | 34.26068 | -84.59363 | 18998 ft | 399 kts | 354° |
| 2026-05-04 20:51 | 34.28834 | -84.59573 | 19444 ft | 398 kts | 348° |
| 2026-05-04 20:51 | 34.31548 | -84.60199 | 19888 ft | 398 kts | 345° |
| 2026-05-04 20:51 | 34.34271 | -84.60868 | 20334 ft | 400 kts | 344° |
| 2026-05-04 20:52 | 34.37008 | -84.61541 | 20815 ft | 402 kts | 344° |
| 2026-05-04 20:52 | 34.39756 | -84.62217 | 21297 ft | 403 kts | 344° |
| 2026-05-04 20:52 | 34.42477 | -84.62886 | 21736 ft | 406 kts | 344° |
| 2026-05-04 20:52 | 34.45260 | -84.63571 | 22191 ft | 408 kts | 344° |
| 2026-05-04 20:53 | 34.48048 | -84.64259 | 22611 ft | 410 kts | 344° |
| 2026-05-04 20:53 | 34.50851 | -84.64951 | 23049 ft | 412 kts | 343° |
| 2026-05-04 20:53 | 34.53669 | -84.65646 | 23466 ft | 414 kts | 343° |
| 2026-05-04 20:53 | 34.56502 | -84.66346 | 23828 ft | 416 kts | 343° |
| 2026-05-04 20:54 | 34.59349 | -84.67048 | 24134 ft | 419 kts | 343° |
| 2026-05-04 20:54 | 34.62212 | -84.67755 | 24495 ft | 421 kts | 343° |
| 2026-05-04 20:54 | 34.65090 | -84.68465 | 24858 ft | 422 kts | 343° |
| 2026-05-04 20:54 | 34.67976 | -84.69177 | 25198 ft | 424 kts | 343° |
| 2026-05-04 20:55 | 34.70875 | -84.69899 | 25552 ft | 426 kts | 343° |
| 2026-05-04 20:55 | 34.73781 | -84.70623 | 25906 ft | 427 kts | 343° |
| 2026-05-04 20:55 | 34.76665 | -84.71338 | 26220 ft | 429 kts | 343° |
| 2026-05-04 20:55 | 34.79597 | -84.72062 | 26569 ft | 431 kts | 344° |
| 2026-05-04 20:56 | 34.82543 | -84.72788 | 26906 ft | 433 kts | 344° |
| 2026-05-04 20:56 | 34.85541 | -84.73528 | 27237 ft | 435 kts | 344° |
| 2026-05-04 20:56 | 34.88475 | -84.74256 | 27566 ft | 436 kts | 344° |
| 2026-05-04 20:56 | 34.91452 | -84.74998 | 27925 ft | 437 kts | 344° |
| 2026-05-04 20:57 | 34.94433 | -84.75744 | 28229 ft | 438 kts | 344° |
| 2026-05-04 20:57 | 34.97427 | -84.76494 | 28527 ft | 440 kts | 344° |
| 2026-05-04 20:57 | 35.00434 | -84.77246 | 28818 ft | 442 kts | 344° |
| 2026-05-04 20:57 | 35.03449 | -84.78000 | 29099 ft | 443 kts | 344° |
| 2026-05-04 20:58 | 35.06480 | -84.78759 | 29382 ft | 445 kts | 344° |
| 2026-05-04 20:58 | 35.09517 | -84.79519 | 29666 ft | 447 kts | 344° |
| 2026-05-04 20:58 | 35.12562 | -84.80279 | 30020 ft | 446 kts | 344° |
| 2026-05-04 20:58 | 35.15604 | -84.81038 | 30373 ft | 445 kts | 344° |
| 2026-05-04 20:59 | 35.18637 | -84.81794 | 30667 ft | 445 kts | 343° |
| 2026-05-04 20:59 | 35.21670 | -84.82551 | 30996 ft | 444 kts | 343° |
| 2026-05-04 20:59 | 35.24695 | -84.83310 | 31322 ft | 444 kts | 343° |
| 2026-05-04 20:59 | 35.27725 | -84.84071 | 31652 ft | 444 kts | 343° |
| 2026-05-04 21:00 | 35.30742 | -84.84830 | 31973 ft | 443 kts | 343° |
| 2026-05-04 21:00 | 35.33721 | -84.85580 | 32310 ft | 442 kts | 343° |
| 2026-05-04 21:00 | 35.36737 | -84.86339 | 32645 ft | 442 kts | 343° |
| 2026-05-04 21:00 | 35.39744 | -84.87098 | 32998 ft | 441 kts | 343° |
| 2026-05-04 21:01 | 35.42746 | -84.87854 | 33355 ft | 440 kts | 343° |
| 2026-05-04 21:01 | 35.45749 | -84.88611 | 33693 ft | 439 kts | 343° |
| 2026-05-04 21:01 | 35.48740 | -84.89367 | 33952 ft | 440 kts | 343° |
| 2026-05-04 21:01 | 35.51726 | -84.90121 | 34013 ft | 436 kts | 343° |
| 2026-05-04 21:02 | 35.57639 | -84.91606 | 34006 ft | 432 kts | 343° |
| 2026-05-04 21:02 | 35.63527 | -84.93097 | 34006 ft | 432 kts | 343° |
| 2026-05-04 21:03 | 35.69414 | -84.94595 | 34011 ft | 432 kts | 343° |
| 2026-05-04 21:03 | 35.75296 | -84.96095 | 33988 ft | 432 kts | 343° |
| 2026-05-04 21:04 | 35.81178 | -84.97596 | 34000 ft | 432 kts | 343° |
| 2026-05-04 21:04 | 35.87028 | -84.99085 | 34006 ft | 432 kts | 343° |
| 2026-05-04 21:05 | 35.92912 | -85.00581 | 34001 ft | 432 kts | 343° |
| 2026-05-04 21:05 | 35.98789 | -85.02088 | 34011 ft | 432 kts | 343° |
| 2026-05-04 21:06 | 36.04670 | -85.03586 | 34003 ft | 431 kts | 343° |
| 2026-05-04 21:06 | 36.10551 | -85.05097 | 33999 ft | 431 kts | 343° |
| 2026-05-04 21:07 | 36.16433 | -85.06606 | 34015 ft | 431 kts | 343° |
| 2026-05-04 21:07 | 36.22306 | -85.08107 | 34008 ft | 431 kts | 343° |
| 2026-05-04 21:08 | 36.28184 | -85.09616 | 33999 ft | 431 kts | 343° |
| 2026-05-04 21:08 | 36.34015 | -85.11128 | 33993 ft | 431 kts | 343° |
| 2026-05-04 21:09 | 36.39884 | -85.12651 | 33980 ft | 431 kts | 343° |
| 2026-05-04 21:09 | 36.45743 | -85.14167 | 33994 ft | 430 kts | 343° |
| 2026-05-04 21:10 | 36.51594 | -85.15683 | 33991 ft | 429 kts | 342° |
| 2026-05-04 21:10 | 36.57437 | -85.17200 | 33970 ft | 429 kts | 343° |
| 2026-05-04 21:11 | 36.63277 | -85.18705 | 33977 ft | 428 kts | 343° |
| 2026-05-04 21:11 | 36.69072 | -85.20211 | 33991 ft | 428 kts | 342° |
| 2026-05-04 21:12 | 36.74900 | -85.21730 | 33979 ft | 428 kts | 342° |
| 2026-05-04 21:12 | 36.80720 | -85.23257 | 33967 ft | 427 kts | 342° |
| 2026-05-04 21:13 | 36.86540 | -85.24784 | 33956 ft | 427 kts | 342° |
| 2026-05-04 21:13 | 36.92361 | -85.26307 | 33971 ft | 427 kts | 342° |
| 2026-05-04 21:14 | 36.98180 | -85.27834 | 33948 ft | 427 kts | 342° |
| 2026-05-04 21:14 | 37.04003 | -85.29362 | 33940 ft | 427 kts | 342° |
| 2026-05-04 21:15 | 37.09823 | -85.30888 | 33930 ft | 427 kts | 342° |
| 2026-05-04 21:15 | 37.15637 | -85.32420 | 33952 ft | 427 kts | 342° |
| 2026-05-04 21:16 | 37.21415 | -85.33947 | 33935 ft | 427 kts | 342° |
| 2026-05-04 21:16 | 37.27263 | -85.35492 | 33922 ft | 427 kts | 342° |
| 2026-05-04 21:17 | 37.33041 | -85.37026 | 33916 ft | 427 kts | 342° |
| 2026-05-04 21:17 | 37.38844 | -85.38565 | 33936 ft | 427 kts | 342° |
| 2026-05-04 21:18 | 37.44656 | -85.40109 | 33922 ft | 426 kts | 342° |
| 2026-05-04 21:18 | 37.50459 | -85.41653 | 33910 ft | 426 kts | 342° |
| 2026-05-04 21:19 | 37.56256 | -85.43196 | 33894 ft | 426 kts | 342° |
| 2026-05-04 21:19 | 37.62067 | -85.44747 | 33884 ft | 426 kts | 342° |
| 2026-05-04 21:20 | 37.67869 | -85.46299 | 33892 ft | 426 kts | 342° |
| 2026-05-04 21:20 | 37.73670 | -85.47854 | 33878 ft | 426 kts | 342° |
| 2026-05-04 21:21 | 37.79468 | -85.49413 | 33875 ft | 426 kts | 342° |
| 2026-05-04 21:21 | 37.85268 | -85.50972 | 33873 ft | 426 kts | 342° |
| 2026-05-04 21:22 | 37.91069 | -85.52531 | 33893 ft | 426 kts | 342° |
| 2026-05-04 21:22 | 37.96836 | -85.54081 | 33880 ft | 426 kts | 342° |
| 2026-05-04 21:23 | 38.02639 | -85.55648 | 33862 ft | 426 kts | 342° |
| 2026-05-04 21:23 | 38.08443 | -85.57225 | 33859 ft | 426 kts | 341° |
| 2026-05-04 21:24 | 38.13912 | -85.59812 | 33871 ft | 418 kts | 330° |
| 2026-05-04 21:24 | 38.19199 | -85.62924 | 33860 ft | 419 kts | 330° |
| 2026-05-04 21:25 | 38.24490 | -85.66032 | 33857 ft | 419 kts | 330° |
| 2026-05-04 21:25 | 38.29788 | -85.69143 | 33858 ft | 419 kts | 330° |
| 2026-05-04 21:26 | 38.35086 | -85.72258 | 33836 ft | 419 kts | 330° |
| 2026-05-04 21:26 | 38.40343 | -85.75362 | 33837 ft | 419 kts | 330° |
| 2026-05-04 21:27 | 38.45634 | -85.78498 | 33841 ft | 419 kts | 330° |
| 2026-05-04 21:27 | 38.50928 | -85.81632 | 33839 ft | 419 kts | 330° |
| 2026-05-04 21:28 | 38.56218 | -85.84764 | 33834 ft | 419 kts | 330° |
| 2026-05-04 21:28 | 38.61511 | -85.87911 | 33849 ft | 420 kts | 331° |
| 2026-05-04 21:29 | 38.66807 | -85.91062 | 33834 ft | 420 kts | 331° |
| 2026-05-04 21:29 | 38.72108 | -85.94222 | 33826 ft | 420 kts | 331° |
| 2026-05-04 21:30 | 38.77405 | -85.97380 | 33823 ft | 420 kts | 331° |
| 2026-05-04 21:30 | 38.82700 | -86.00556 | 33832 ft | 420 kts | 332° |
| 2026-05-04 21:31 | 38.90641 | -86.05296 | 33818 ft | 420 kts | 331° |
| 2026-05-04 21:32 | 38.95903 | -86.08454 | 33809 ft | 420 kts | 331° |
| 2026-05-04 21:32 | 39.01196 | -86.11648 | 33808 ft | 420 kts | 331° |
| 2026-05-04 21:33 | 39.06483 | -86.14838 | 33816 ft | 420 kts | 332° |
| 2026-05-04 21:33 | 39.11781 | -86.18028 | 33811 ft | 420 kts | 332° |
| 2026-05-04 21:34 | 39.17072 | -86.21219 | 33795 ft | 420 kts | 332° |
| 2026-05-04 21:34 | 39.22369 | -86.24429 | 33795 ft | 420 kts | 331° |
| 2026-05-04 21:35 | 39.27658 | -86.27648 | 33793 ft | 420 kts | 331° |
| 2026-05-04 21:35 | 39.32917 | -86.30837 | 33799 ft | 420 kts | 331° |
| 2026-05-04 21:36 | 39.38213 | -86.34050 | 33783 ft | 420 kts | 328° |
| 2026-05-04 21:36 | 39.43491 | -86.37301 | 33846 ft | 420 kts | 328° |
| 2026-05-04 21:37 | 39.47865 | -86.40039 | 33959 ft | 420 kts | 327° |
| 2026-05-04 21:37 | 39.53106 | -86.43372 | 33797 ft | 419 kts | 327° |
| 2026-05-04 21:37 | 39.55719 | -86.45047 | 33658 ft | 419 kts | 327° |
| 2026-05-04 21:38 | 39.59171 | -86.47273 | 33573 ft | 418 kts | 326° |
| 2026-05-04 21:38 | 39.63549 | -86.50069 | 33672 ft | 419 kts | 327° |
| 2026-05-04 21:38 | 39.66178 | -86.51706 | 33777 ft | 419 kts | 327° |
| 2026-05-04 21:39 | 39.68827 | -86.53292 | 33691 ft | 420 kts | 329° |
| 2026-05-04 21:39 | 39.74206 | -86.56175 | 33786 ft | 421 kts | 334° |
| 2026-05-04 21:40 | 39.79571 | -86.59215 | 33788 ft | 420 kts | 330° |
| 2026-05-04 21:40 | 39.84826 | -86.62508 | 33781 ft | 419 kts | 329° |
| 2026-05-04 21:41 | 39.90063 | -86.65853 | 33761 ft | 419 kts | 330° |
| 2026-05-04 21:41 | 39.95316 | -86.69154 | 33756 ft | 419 kts | 330° |
| 2026-05-04 21:42 | 40.00579 | -86.72428 | 33764 ft | 419 kts | 330° |
| 2026-05-04 21:42 | 40.05848 | -86.75699 | 33754 ft | 419 kts | 330° |
| 2026-05-04 21:43 | 40.11121 | -86.78974 | 33748 ft | 420 kts | 330° |
| 2026-05-04 21:43 | 40.16361 | -86.82242 | 33744 ft | 420 kts | 330° |
| 2026-05-04 21:44 | 40.21637 | -86.85540 | 33733 ft | 420 kts | 330° |
| 2026-05-04 21:44 | 40.26923 | -86.88853 | 33712 ft | 422 kts | 329° |
| 2026-05-04 21:45 | 40.32239 | -86.92193 | 33707 ft | 424 kts | 330° |
| 2026-05-04 21:45 | 40.37574 | -86.95543 | 33711 ft | 426 kts | 329° |
| 2026-05-04 21:46 | 40.41854 | -86.98236 | 33711 ft | 427 kts | 329° |
| 2026-05-04 21:46 | 40.45104 | -87.00288 | 33740 ft | 428 kts | 330° |
| 2026-05-04 21:47 | 40.50487 | -87.03686 | 33733 ft | 428 kts | 329° |
| 2026-05-04 21:47 | 40.55870 | -87.07079 | 33730 ft | 429 kts | 331° |
| 2026-05-04 21:48 | 40.61396 | -87.10120 | 33729 ft | 431 kts | 334° |
| 2026-05-04 21:48 | 40.66981 | -87.12873 | 33717 ft | 431 kts | 332° |
| 2026-05-04 21:49 | 40.72592 | -87.15699 | 33717 ft | 431 kts | 334° |
| 2026-05-04 21:49 | 40.78187 | -87.18564 | 33696 ft | 431 kts | 333° |
| 2026-05-04 21:50 | 40.83764 | -87.21479 | 33711 ft | 431 kts | 333° |
| 2026-05-04 21:50 | 40.88370 | -87.23889 | 33726 ft | 431 kts | 333° |
| 2026-05-04 21:51 | 40.92843 | -87.26154 | 33710 ft | 431 kts | 333° |
| 2026-05-04 21:51 | 40.98427 | -87.29081 | 33691 ft | 431 kts | 333° |
| 2026-05-04 21:52 | 41.03992 | -87.32038 | 33689 ft | 431 kts | 333° |
| 2026-05-04 21:52 | 41.09556 | -87.34975 | 33679 ft | 431 kts | 333° |
| 2026-05-04 21:53 | 41.15091 | -87.37878 | 33696 ft | 430 kts | 334° |
| 2026-05-04 21:53 | 41.20692 | -87.40825 | 33683 ft | 430 kts | 334° |
| 2026-05-04 21:54 | 41.20899 | -87.40933 | 33683 ft | 430 kts | 334° |
| 2026-05-04 21:55 | 41.26455 | -87.43861 | 33668 ft | 429 kts | 334° |
| 2026-05-04 21:56 | 41.32008 | -87.46793 | 33676 ft | 429 kts | 334° |
| 2026-05-04 21:56 | 41.37553 | -87.49729 | 33673 ft | 428 kts | 333° |
| 2026-05-04 21:57 | 41.43081 | -87.52660 | 33654 ft | 427 kts | 333° |
| 2026-05-04 21:57 | 41.48605 | -87.55586 | 33625 ft | 427 kts | 333° |
| 2026-05-04 21:58 | 41.54123 | -87.58519 | 33646 ft | 426 kts | 333° |
| 2026-05-04 21:58 | 41.59630 | -87.61460 | 33642 ft | 425 kts | 333° |
| 2026-05-04 21:59 | 41.65093 | -87.64376 | 33637 ft | 425 kts | 333° |
| 2026-05-04 21:59 | 41.70576 | -87.67305 | 33611 ft | 424 kts | 333° |
| 2026-05-04 22:00 | 41.76057 | -87.70247 | 33632 ft | 424 kts | 333° |
| 2026-05-04 22:00 | 41.81533 | -87.73186 | 33616 ft | 424 kts | 333° |
| 2026-05-04 22:01 | 41.87009 | -87.76130 | 33596 ft | 424 kts | 333° |
| 2026-05-04 22:01 | 41.92476 | -87.79074 | 33571 ft | 424 kts | 333° |
| 2026-05-04 22:02 | 41.97944 | -87.82032 | 33591 ft | 423 kts | 332° |
| 2026-05-04 22:02 | 42.03405 | -87.84987 | 33583 ft | 423 kts | 332° |
| 2026-05-04 22:03 | 42.08778 | -87.87893 | 33587 ft | 423 kts | 332° |
| 2026-05-04 22:03 | 42.14296 | -87.90893 | 33581 ft | 422 kts | 332° |
| 2026-05-04 22:04 | 42.19701 | -87.93827 | 33583 ft | 422 kts | 332° |
| 2026-05-04 22:04 | 42.25316 | -87.96323 | 33568 ft | 427 kts | 339° |
| 2026-05-04 22:05 | 42.31026 | -87.98416 | 33557 ft | 427 kts | 338° |
| 2026-05-04 22:05 | 42.36760 | -88.00528 | 33552 ft | 427 kts | 338° |
| 2026-05-04 22:06 | 42.42483 | -88.02644 | 33574 ft | 426 kts | 338° |
| 2026-05-04 22:06 | 42.48212 | -88.04763 | 33570 ft | 426 kts | 338° |
| 2026-05-04 22:07 | 42.53901 | -88.06862 | 33553 ft | 426 kts | 338° |
| 2026-05-04 22:07 | 42.59627 | -88.08990 | 33549 ft | 426 kts | 338° |
| 2026-05-04 22:08 | 42.65342 | -88.11123 | 33577 ft | 425 kts | 338° |
| 2026-05-04 22:08 | 42.71048 | -88.13248 | 33568 ft | 425 kts | 338° |
| 2026-05-04 22:09 | 42.76747 | -88.15366 | 33561 ft | 424 kts | 338° |
| 2026-05-04 22:09 | 42.82438 | -88.17491 | 33556 ft | 424 kts | 338° |
| 2026-05-04 22:10 | 42.88120 | -88.19620 | 33548 ft | 424 kts | 338° |
| 2026-05-04 22:10 | 42.93810 | -88.21762 | 33538 ft | 424 kts | 338° |
| 2026-05-04 22:11 | 42.99453 | -88.23883 | 33537 ft | 424 kts | 338° |
| 2026-05-04 22:11 | 43.05135 | -88.26015 | 33573 ft | 423 kts | 337° |
| 2026-05-04 22:12 | 43.10361 | -88.28718 | 33568 ft | 408 kts | 323° |
| 2026-05-04 22:12 | 43.14667 | -88.33522 | 33555 ft | 393 kts | 306° |
| 2026-05-04 22:13 | 43.18092 | -88.39323 | 33542 ft | 391 kts | 304° |
| 2026-05-04 22:13 | 43.21500 | -88.45141 | 33523 ft | 391 kts | 304° |
| 2026-05-04 22:14 | 43.24904 | -88.50964 | 33559 ft | 391 kts | 303° |
| 2026-05-04 22:14 | 43.28298 | -88.56781 | 33544 ft | 390 kts | 303° |
| 2026-05-04 22:15 | 43.31688 | -88.62591 | 33539 ft | 390 kts | 303° |
| 2026-05-04 22:15 | 43.35071 | -88.68409 | 33516 ft | 390 kts | 303° |
| 2026-05-04 22:16 | 43.38449 | -88.74243 | 33510 ft | 389 kts | 303° |
| 2026-05-04 22:16 | 43.41822 | -88.80072 | 33511 ft | 389 kts | 303° |
| 2026-05-04 22:17 | 43.45188 | -88.85894 | 33543 ft | 389 kts | 303° |
| 2026-05-04 22:17 | 43.48530 | -88.91674 | 33536 ft | 388 kts | 302° |
| 2026-05-04 22:18 | 43.51880 | -88.97492 | 33527 ft | 387 kts | 302° |
| 2026-05-04 22:18 | 43.55218 | -89.03304 | 33521 ft | 387 kts | 302° |
| 2026-05-04 22:19 | 43.58552 | -89.09125 | 33523 ft | 386 kts | 302° |
| 2026-05-04 22:19 | 43.61885 | -89.14943 | 33519 ft | 386 kts | 302° |
| 2026-05-04 22:20 | 43.65201 | -89.20759 | 33547 ft | 386 kts | 302° |
| 2026-05-04 22:20 | 43.68519 | -89.26591 | 33546 ft | 385 kts | 302° |
| 2026-05-04 22:21 | 43.71806 | -89.32364 | 33541 ft | 384 kts | 302° |
| 2026-05-04 22:21 | 43.75106 | -89.38167 | 33534 ft | 383 kts | 302° |
| 2026-05-04 22:22 | 43.78390 | -89.43975 | 33524 ft | 383 kts | 302° |
| 2026-05-04 22:22 | 43.81668 | -89.49777 | 33520 ft | 383 kts | 302° |
| 2026-05-04 22:23 | 43.84946 | -89.55581 | 33552 ft | 382 kts | 301° |
| 2026-05-04 22:23 | 43.88205 | -89.61365 | 33548 ft | 381 kts | 301° |
| 2026-05-04 22:24 | 43.91430 | -89.67112 | 33543 ft | 380 kts | 301° |
| 2026-05-04 22:24 | 43.94669 | -89.72891 | 33541 ft | 379 kts | 301° |
| 2026-05-04 22:25 | 43.95885 | -89.75066 | 33539 ft | 379 kts | 301° |
| 2026-05-04 22:25 | 43.99109 | -89.80863 | 33533 ft | 379 kts | 301° |
| 2026-05-04 22:26 | 44.02334 | -89.86658 | 33533 ft | 379 kts | 301° |
| 2026-05-04 22:26 | 44.05576 | -89.92440 | 33573 ft | 378 kts | 301° |
| 2026-05-04 22:27 | 44.08801 | -89.98195 | 33568 ft | 377 kts | 302° |
| 2026-05-04 22:27 | 44.12105 | -90.03836 | 33565 ft | 376 kts | 303° |
| 2026-05-04 22:28 | 44.15437 | -90.09448 | 33557 ft | 375 kts | 302° |
| 2026-05-04 22:28 | 44.17107 | -90.12290 | 33367 ft | 385 kts | 302° |
| 2026-05-04 22:28 | 44.18807 | -90.15206 | 33088 ft | 389 kts | 302° |
| 2026-05-04 22:28 | 44.20514 | -90.18137 | 32825 ft | 390 kts | 302° |
| 2026-05-04 22:29 | 44.22225 | -90.21070 | 32552 ft | 389 kts | 302° |
| 2026-05-04 22:29 | 44.23355 | -90.23009 | 32422 ft | 388 kts | 302° |
| 2026-05-04 22:29 | 44.25049 | -90.25914 | 32154 ft | 385 kts | 302° |
| 2026-05-04 22:29 | 44.26733 | -90.28809 | 31891 ft | 383 kts | 302° |
| 2026-05-04 22:30 | 44.28410 | -90.31698 | 31633 ft | 382 kts | 302° |
| 2026-05-04 22:30 | 44.30077 | -90.34575 | 31377 ft | 381 kts | 302° |
| 2026-05-04 22:30 | 44.31739 | -90.37449 | 31123 ft | 380 kts | 302° |
| 2026-05-04 22:30 | 44.33392 | -90.40311 | 30872 ft | 378 kts | 301° |
| 2026-05-04 22:31 | 44.34847 | -90.43313 | 30620 ft | 370 kts | 293° |
| 2026-05-04 22:31 | 44.35915 | -90.46546 | 30383 ft | 365 kts | 288° |
| 2026-05-04 22:31 | 44.36878 | -90.49818 | 30134 ft | 364 kts | 288° |
| 2026-05-04 22:31 | 44.37842 | -90.53084 | 29886 ft | 363 kts | 288° |
| 2026-05-04 22:32 | 44.38805 | -90.56339 | 29635 ft | 362 kts | 288° |
| 2026-05-04 22:32 | 44.39765 | -90.59582 | 29362 ft | 361 kts | 288° |
| 2026-05-04 22:32 | 44.40725 | -90.62820 | 29091 ft | 359 kts | 288° |
| 2026-05-04 22:32 | 44.41677 | -90.66033 | 28707 ft | 355 kts | 288° |
| 2026-05-04 22:33 | 44.42617 | -90.69218 | 28430 ft | 354 kts | 287° |
| 2026-05-04 22:33 | 44.43554 | -90.72385 | 28172 ft | 351 kts | 287° |
| 2026-05-04 22:33 | 44.44485 | -90.75532 | 27944 ft | 349 kts | 287° |
| 2026-05-04 22:33 | 44.45408 | -90.78665 | 27711 ft | 348 kts | 287° |
| 2026-05-04 22:34 | 44.46329 | -90.81791 | 27484 ft | 347 kts | 287° |
| 2026-05-04 22:34 | 44.47235 | -90.84861 | 27262 ft | 345 kts | 287° |
| 2026-05-04 22:34 | 44.48151 | -90.87965 | 27033 ft | 344 kts | 287° |
| 2026-05-04 22:34 | 44.49062 | -90.91058 | 26809 ft | 343 kts | 287° |
| 2026-05-04 22:35 | 44.49968 | -90.94139 | 26588 ft | 341 kts | 287° |
| 2026-05-04 22:35 | 44.50869 | -90.97213 | 26363 ft | 340 kts | 287° |
| 2026-05-04 22:35 | 44.51763 | -91.00276 | 26144 ft | 339 kts | 287° |
| 2026-05-04 22:35 | 44.52652 | -91.03324 | 25913 ft | 338 kts | 287° |
| 2026-05-04 22:36 | 44.53537 | -91.06365 | 25695 ft | 337 kts | 287° |
| 2026-05-04 22:36 | 44.54423 | -91.09403 | 25476 ft | 335 kts | 287° |
| 2026-05-04 22:36 | 44.55303 | -91.12421 | 25256 ft | 334 kts | 287° |
| 2026-05-04 22:36 | 44.56183 | -91.15437 | 25041 ft | 333 kts | 287° |
| 2026-05-04 22:37 | 44.57054 | -91.18436 | 24810 ft | 332 kts | 287° |
| 2026-05-04 22:37 | 44.57922 | -91.21427 | 24595 ft | 331 kts | 287° |
| 2026-05-04 22:37 | 44.58787 | -91.24414 | 24386 ft | 329 kts | 287° |
| 2026-05-04 22:37 | 44.59648 | -91.27388 | 24170 ft | 328 kts | 287° |
| 2026-05-04 22:38 | 44.60503 | -91.30349 | 23955 ft | 327 kts | 286° |
| 2026-05-04 22:38 | 44.61356 | -91.33307 | 23757 ft | 325 kts | 286° |
| 2026-05-04 22:38 | 44.62199 | -91.36235 | 23497 ft | 323 kts | 286° |
| 2026-05-04 22:38 | 44.63038 | -91.39143 | 23023 ft | 320 kts | 286° |
| 2026-05-04 22:39 | 44.63869 | -91.42016 | 22505 ft | 316 kts | 286° |
| 2026-05-04 22:39 | 44.64692 | -91.44859 | 21955 ft | 313 kts | 287° |
| 2026-05-04 22:39 | 44.65506 | -91.47675 | 21411 ft | 310 kts | 287° |
| 2026-05-04 22:39 | 44.66302 | -91.50433 | 20884 ft | 308 kts | 287° |
| 2026-05-04 22:40 | 44.67103 | -91.53208 | 20393 ft | 305 kts | 287° |
| 2026-05-04 22:40 | 44.67893 | -91.55955 | 19923 ft | 302 kts | 287° |
| 2026-05-04 22:40 | 44.68675 | -91.58680 | 19444 ft | 300 kts | 287° |
| 2026-05-04 22:40 | 44.69449 | -91.61387 | 18974 ft | 298 kts | 287° |
| 2026-05-04 22:41 | 44.70217 | -91.64080 | 18511 ft | 296 kts | 287° |
| 2026-05-04 22:41 | 44.70981 | -91.66757 | 18045 ft | 294 kts | 287° |
| 2026-05-04 22:41 | 44.71741 | -91.69421 | 17542 ft | 293 kts | 287° |
| 2026-05-04 22:41 | 44.72499 | -91.72075 | 17042 ft | 291 kts | 287° |
| 2026-05-04 22:42 | 44.73250 | -91.74709 | 16548 ft | 289 kts | 287° |
| 2026-05-04 22:42 | 44.73995 | -91.77326 | 16085 ft | 288 kts | 287° |
| 2026-05-04 22:42 | 44.74736 | -91.79933 | 15599 ft | 286 kts | 287° |
| 2026-05-04 22:42 | 44.75469 | -91.82521 | 15135 ft | 284 kts | 287° |
| 2026-05-04 22:43 | 44.76200 | -91.85101 | 14683 ft | 283 kts | 287° |
| 2026-05-04 22:43 | 44.76925 | -91.87662 | 14207 ft | 281 kts | 287° |
| 2026-05-04 22:43 | 44.77637 | -91.90218 | 13772 ft | 280 kts | 287° |
| 2026-05-04 22:43 | 44.78333 | -91.92772 | 13321 ft | 279 kts | 287° |
| 2026-05-04 22:44 | 44.79020 | -91.95316 | 12837 ft | 277 kts | 287° |
| 2026-05-04 22:44 | 44.79704 | -91.97850 | 12347 ft | 276 kts | 287° |
| 2026-05-04 22:44 | 44.80360 | -92.00348 | 11897 ft | 275 kts | 288° |
| 2026-05-04 22:44 | 44.81021 | -92.02866 | 11929 ft | 275 kts | 288° |
| 2026-05-04 22:45 | 44.81703 | -92.05392 | 11939 ft | 276 kts | 288° |
| 2026-05-04 22:45 | 44.83085 | -92.10451 | 11940 ft | 277 kts | 288° |
| 2026-05-04 22:45 | 44.83774 | -92.12979 | 11937 ft | 277 kts | 288° |
| 2026-05-04 22:46 | 44.84457 | -92.15494 | 11543 ft | 274 kts | 288° |
| 2026-05-04 22:46 | 44.85110 | -92.18008 | 11074 ft | 273 kts | 284° |
| 2026-05-04 22:46 | 44.85421 | -92.20634 | 10597 ft | 271 kts | 275° |
| 2026-05-04 22:46 | 44.85575 | -92.23278 | 10150 ft | 271 kts | 276° |
| 2026-05-04 22:47 | 44.85730 | -92.25878 | 9956 ft | 266 kts | 276° |
| 2026-05-04 22:47 | 44.85885 | -92.28419 | 9949 ft | 249 kts | 276° |
| 2026-05-04 22:47 | 44.86030 | -92.30777 | 9959 ft | 243 kts | 276° |
| 2026-05-04 22:47 | 44.86173 | -92.33147 | 9962 ft | 243 kts | 276° |
| 2026-05-04 22:48 | 44.86299 | -92.35518 | 9964 ft | 243 kts | 275° |
| 2026-05-04 22:48 | 44.86412 | -92.37888 | 9963 ft | 243 kts | 275° |
| 2026-05-04 22:48 | 44.86521 | -92.40264 | 9968 ft | 243 kts | 275° |
| 2026-05-04 22:48 | 44.86632 | -92.42640 | 9964 ft | 243 kts | 275° |
| 2026-05-04 22:49 | 44.86745 | -92.45012 | 9972 ft | 243 kts | 275° |
| 2026-05-04 22:49 | 44.86801 | -92.47392 | 9972 ft | 243 kts | 268° |
| 2026-05-04 22:49 | 44.86481 | -92.49738 | 9748 ft | 247 kts | 256° |
| 2026-05-04 22:49 | 44.85744 | -92.51974 | 9226 ft | 254 kts | 248° |
| 2026-05-04 22:50 | 44.84922 | -92.54192 | 8731 ft | 256 kts | 248° |
| 2026-05-04 22:50 | 44.84098 | -92.56420 | 8265 ft | 257 kts | 248° |
| 2026-05-04 22:50 | 44.83283 | -92.58631 | 7817 ft | 257 kts | 248° |
| 2026-05-04 22:50 | 44.82459 | -92.60869 | 7400 ft | 257 kts | 248° |
| 2026-05-04 22:51 | 44.81640 | -92.63099 | 7093 ft | 255 kts | 248° |
| 2026-05-04 22:51 | 44.80826 | -92.65319 | 6968 ft | 255 kts | 247° |
| 2026-05-04 22:51 | 44.80012 | -92.67540 | 6967 ft | 256 kts | 248° |
| 2026-05-04 22:51 | 44.79204 | -92.69733 | 6970 ft | 245 kts | 248° |
| 2026-05-04 22:52 | 44.78444 | -92.71786 | 6978 ft | 228 kts | 248° |
| 2026-05-04 22:52 | 44.77724 | -92.73733 | 6815 ft | 222 kts | 248° |
| 2026-05-04 22:52 | 44.77222 | -92.75737 | 6509 ft | 215 kts | 266° |
| 2026-05-04 22:52 | 44.77226 | -92.77814 | 6180 ft | 211 kts | 279° |
| 2026-05-04 22:53 | 44.77384 | -92.79869 | 5863 ft | 211 kts | 278° |
| 2026-05-04 22:53 | 44.77533 | -92.81924 | 5596 ft | 210 kts | 278° |
| 2026-05-04 22:53 | 44.77677 | -92.83963 | 5297 ft | 209 kts | 278° |
| 2026-05-04 22:53 | 44.77820 | -92.86003 | 5010 ft | 209 kts | 278° |
| 2026-05-04 22:54 | 44.77959 | -92.88035 | 4712 ft | 209 kts | 278° |
| 2026-05-04 22:54 | 44.78096 | -92.90054 | 4583 ft | 208 kts | 278° |
| 2026-05-04 22:54 | 44.78233 | -92.92054 | 4458 ft | 208 kts | 278° |
| 2026-05-04 22:54 | 44.78371 | -92.94076 | 4328 ft | 207 kts | 278° |
| 2026-05-04 22:55 | 44.78511 | -92.96102 | 4199 ft | 210 kts | 278° |
| 2026-05-04 22:55 | 44.78653 | -92.98156 | 4071 ft | 211 kts | 278° |
| 2026-05-04 22:55 | 44.78835 | -93.00192 | 3941 ft | 209 kts | 288° |
| 2026-05-04 22:55 | 44.79447 | -93.01958 | 3846 ft | 197 kts | 301° |
| 2026-05-04 22:56 | 44.80144 | -93.03558 | 3617 ft | 187 kts | 302° |
| 2026-05-04 22:56 | 44.80804 | -93.05063 | 3363 ft | 175 kts | 302° |
| 2026-05-04 22:56 | 44.81420 | -93.06474 | 3138 ft | 161 kts | 302° |
| 2026-05-04 22:56 | 44.81975 | -93.07747 | 2912 ft | 145 kts | 302° |
| 2026-05-04 22:57 | 44.82493 | -93.08934 | 2726 ft | 140 kts | 302° |
| 2026-05-04 22:57 | 44.82993 | -93.10084 | 2546 ft | 135 kts | 302° |
| 2026-05-04 22:57 | 44.83478 | -93.11198 | 2368 ft | 132 kts | 302° |
| 2026-05-04 22:57 | 44.83961 | -93.12310 | 2186 ft | 133 kts | 302° |
| 2026-05-04 22:58 | 44.84445 | -93.13422 | 1997 ft | 133 kts | 302° |
| 2026-05-04 22:58 | 44.84924 | -93.14523 | 1833 ft | 132 kts | 300° |
| 2026-05-04 22:58 | 44.85409 | -93.15619 | 1652 ft | 134 kts | 300° |
| 2026-05-04 22:58 | 44.85891 | -93.16727 | 1440 ft | 134 kts | 298° |
| 2026-05-04 22:59 | 44.86364 | -93.17840 | 1283 ft | 131 kts | 298° |
| 2026-05-04 22:59 | 44.86847 | -93.18963 | 1084 ft | 133 kts | 301° |
| 2026-05-04 22:59 | 44.87329 | -93.20060 | 892 ft | 131 kts | 298° |
| 2026-05-04 22:59 | 44.87775 | -93.21107 | 826 ft | 113 kts | 301° |
| 2026-05-04 23:00 | 44.88082 | -93.21811 | 824 ft | 56 kts | 302° |
| 2026-05-04 23:00 | 44.88202 | -93.22085 | 825 ft | 13 kts | 303° |
| 2026-05-04 23:00 | 44.88227 | -93.22112 | 826 ft | 2 kts | 341° |
| 2026-05-04 23:00 | 44.88316 | -93.22081 | 823 ft | 10 kts | 39° |
| 2026-05-04 23:01 | 44.88302 | -93.21992 | 825 ft | 10 kts | 116° |
| 2026-05-04 23:01 | 44.88306 | -93.21910 | 825 ft | 8 kts | 50° |
| 2026-05-04 23:01 | 44.88347 | -93.21869 | 826 ft | 7 kts | 34° |
| 2026-05-04 23:01 | 44.88383 | -93.21834 | 822 ft | 6 kts | 36° |
| 2026-05-04 23:02 | 44.88437 | -93.21766 | 825 ft | 17 kts | 44° |
| 2026-05-04 23:02 | 44.88509 | -93.21659 | 826 ft | 13 kts | 52° |
| 2026-05-04 23:02 | 44.88522 | -93.21541 | 823 ft | 12 kts | 107° |
| 2026-05-04 23:02 | 44.88472 | -93.21448 | 823 ft | 12 kts | 126° |
| 2026-05-04 23:03 | 44.88448 | -93.21392 | 825 ft | 0 kts | 120° |
| 2026-05-04 23:04 | 44.88447 | -93.21391 | 821 ft | 1 kts | 120° |
| 2026-05-04 23:04 | 44.88437 | -93.21372 | 824 ft | 3 kts | 132° |
| 2026-05-04 23:05 | 44.88422 | -93.21362 | 825 ft | 3 kts | 162° |
| 2026-05-04 23:05 | 44.88395 | -93.21372 | 825 ft | 4 kts | 213° |
| 2026-05-04 23:05 | 44.88388 | -93.21380 | 822 ft | 1 kts | 219° |
| 2026-05-04 23:05 | 44.88387 | -93.21381 | 823 ft | 0 kts | 219° |
| 2026-05-04 23:06 | 44.88386 | -93.21383 | 823 ft | 2 kts | 219° |
| 2026-05-04 23:06 | 44.88371 | -93.21399 | 823 ft | 0 kts | 219° |
| 2026-05-04 23:06 | 44.88374 | -93.21396 | 822 ft | 0 kts | 220° |
| 2026-05-04 23:07 | 44.88377 | -93.21392 | 825 ft | 0 kts | 219° |
| 2026-05-04 23:07 | 44.88376 | -93.21394 | 825 ft | 0 kts | 219° |